createdAt,value
2017-09-28T02:07:39.987Z,19.17
2017-09-28T02:10:09.575Z,19.20
2017-09-28T02:12:39.240Z,23.43
2017-09-28T02:15:08.581Z,23.50
2017-09-28T02:17:38.348Z,23.97
2017-09-28T02:20:08.269Z,31.43
2017-09-28T02:22:37.229Z,34.17
2017-09-28T02:25:06.239Z,29.57
2017-09-28T02:27:35.377Z,29.03
2017-09-28T02:30:05.106Z,17.57
2017-09-28T02:32:34.048Z,19.60
2017-09-28T02:35:03.065Z,29.67
2017-09-28T02:37:32.936Z,30.17
2017-09-28T02:40:01.944Z,29.27
2017-09-28T02:42:31.272Z,29.63
2017-09-28T02:45:01.384Z,28.50
2017-09-28T02:47:31.035Z,23.30
2017-09-28T02:50:00.149Z,20.83
2017-09-28T02:52:29.028Z,46.03
2017-09-28T02:54:57.863Z,24.13
2017-09-28T02:57:26.804Z,19.30
2017-09-28T02:59:55.713Z,25.93
2017-09-28T03:02:24.638Z,25.77
2017-09-28T03:04:54.239Z,22.93
2017-09-28T03:07:24.992Z,21.67
2017-09-28T03:09:53.943Z,24.67
2017-09-28T03:12:22.779Z,18.93
2017-09-28T03:14:51.969Z,30.70
2017-09-28T03:17:20.811Z,26.20
2017-09-28T03:19:49.837Z,20.73
2017-09-28T03:22:19.419Z,23.10
2017-09-28T03:24:48.624Z,21.60
2017-09-28T03:27:17.484Z,30.60
2017-09-28T03:29:46.315Z,18.83
2017-09-28T03:32:15.892Z,19.43
2017-09-28T03:34:45.409Z,15.07
2017-09-28T03:37:14.451Z,21.80
2017-09-28T03:39:43.311Z,17.30
2017-09-28T03:42:12.924Z,19.07
2017-09-28T03:44:42.057Z,19.90
2017-09-28T03:47:11.212Z,28.30
2017-09-28T03:49:41.309Z,20.77
2017-09-28T03:54:54.081Z,15.70
2017-09-28T03:57:23.336Z,17.47
2017-09-28T03:59:52.324Z,18.93
2017-09-28T04:02:21.262Z,18.20
2017-09-28T04:04:50.118Z,17.60
2017-09-28T04:07:19.752Z,18.97
2017-09-28T04:09:48.622Z,17.67
2017-09-28T04:12:18.655Z,14.40
2017-09-28T04:14:48.040Z,15.53
2017-09-28T04:17:18.083Z,23.90
2017-09-28T04:19:46.963Z,22.47
2017-09-28T04:22:15.805Z,17.97
2017-09-28T04:24:44.727Z,14.80
2017-09-28T04:27:14.506Z,17.97
2017-09-28T04:29:43.500Z,16.53
2017-09-28T04:32:12.513Z,19.00
2017-09-28T04:34:42.209Z,19.93
2017-09-28T04:37:11.823Z,13.13
2017-09-28T04:39:41.444Z,18.00
2017-09-28T04:42:10.625Z,15.20
2017-09-28T04:44:40.284Z,17.20
2017-09-28T04:47:09.148Z,19.50
2017-09-28T04:49:39.062Z,17.87
2017-09-28T04:52:08.701Z,20.30
2017-09-28T04:54:37.585Z,21.57
2017-09-28T04:57:06.743Z,20.63
2017-09-28T04:59:35.615Z,19.60
2017-09-28T05:02:05.200Z,16.17
2017-09-28T05:04:34.349Z,13.93
2017-09-28T05:07:03.614Z,15.23
2017-09-28T05:09:33.599Z,13.70
2017-09-28T05:12:02.856Z,20.20
2017-09-28T05:14:31.763Z,19.10
2017-09-28T05:17:00.630Z,20.00
2017-09-28T05:19:29.770Z,19.20
2017-09-28T05:21:59.175Z,19.27
2017-09-28T05:24:28.376Z,16.23
2017-09-28T05:26:58.147Z,14.50
2017-09-28T05:29:27.026Z,12.67
2017-09-28T05:31:56.057Z,11.03
2017-09-28T05:34:25.291Z,12.93
2017-09-28T05:36:55.078Z,15.47
2017-09-28T05:39:24.824Z,13.47
2017-09-28T05:41:54.202Z,15.97
2017-09-28T05:44:23.844Z,14.97
2017-09-28T05:46:52.999Z,14.23
2017-09-28T05:49:21.923Z,13.40
2017-09-28T05:51:50.785Z,17.13
2017-09-28T05:54:20.725Z,13.10
2017-09-28T05:56:49.677Z,13.57
2017-09-28T05:59:18.703Z,13.63
2017-09-28T06:01:48.095Z,15.40
2017-09-28T06:04:17.139Z,17.63
2017-09-28T06:06:47.514Z,15.30
2017-09-28T06:09:16.455Z,14.57
2017-09-28T06:11:45.388Z,12.20
2017-09-28T06:14:15.046Z,11.27
2017-09-28T06:16:44.000Z,13.33
2017-09-28T06:19:13.276Z,15.03
2017-09-28T06:21:42.899Z,14.47
2017-09-28T06:24:12.534Z,14.40
2017-09-28T06:26:41.829Z,15.90
2017-09-28T06:29:10.718Z,14.93
2017-09-28T06:31:39.630Z,15.00
2017-09-28T06:34:08.514Z,15.23
2017-09-28T06:36:37.448Z,15.53
2017-09-28T06:39:07.924Z,15.43
2017-09-28T06:41:36.790Z,13.30
2017-09-28T06:44:05.701Z,14.80
2017-09-28T06:46:34.883Z,15.27
2017-09-28T06:49:03.979Z,15.07
2017-09-28T06:51:33.087Z,13.47
2017-09-28T06:54:02.820Z,15.57
2017-09-28T06:56:31.728Z,15.63
2017-09-28T06:59:01.740Z,14.60
2017-09-28T07:01:31.402Z,14.33
2017-09-28T07:04:00.329Z,15.50
2017-09-28T07:06:29.477Z,15.17
2017-09-28T07:08:59.075Z,15.13
2017-09-28T07:11:28.868Z,15.20
2017-09-28T07:13:58.493Z,15.30
2017-09-28T07:16:27.416Z,14.43
2017-09-28T07:18:56.579Z,14.50
2017-09-28T07:21:25.447Z,16.80
2017-09-28T07:23:55.078Z,15.40
2017-09-28T07:26:24.308Z,16.63
2017-09-28T07:28:53.459Z,16.90
2017-09-28T07:31:22.361Z,18.23
2017-09-28T07:33:51.248Z,18.17
2017-09-28T07:36:20.568Z,18.67
2017-09-28T07:38:50.463Z,19.10
2017-09-28T07:41:19.335Z,18.27
2017-09-28T07:43:50.475Z,18.83
2017-09-28T07:46:20.795Z,19.70
2017-09-28T07:48:50.775Z,19.90
2017-09-28T07:51:19.937Z,22.10
2017-09-28T07:53:48.837Z,20.53
2017-09-28T07:56:17.726Z,19.97
2017-09-28T07:58:46.579Z,19.03
2017-09-28T08:01:15.988Z,17.70
2017-09-28T08:03:46.380Z,18.17
2017-09-28T08:06:16.032Z,21.57
2017-09-28T08:08:44.955Z,21.13
2017-09-28T08:11:14.900Z,22.80
2017-09-28T08:13:44.748Z,21.80
2017-09-28T08:16:13.682Z,24.30
2017-09-28T08:18:44.246Z,22.97
2017-09-28T08:21:13.895Z,24.13
2017-09-28T08:23:44.107Z,26.20
2017-09-28T08:26:13.056Z,26.13
2017-09-28T08:28:42.736Z,30.33
2017-09-28T08:31:13.354Z,26.20
2017-09-28T08:33:42.996Z,26.20
2017-09-28T08:36:12.692Z,27.23
2017-09-28T08:38:42.332Z,27.20
2017-09-28T08:41:11.274Z,26.93
2017-09-28T08:43:40.512Z,22.67
2017-09-28T08:46:09.631Z,20.60
2017-09-28T08:48:38.544Z,20.80
2017-09-28T08:51:07.782Z,23.73
2017-09-28T08:53:36.822Z,20.53
2017-09-28T08:56:05.844Z,19.80
2017-09-28T08:58:35.502Z,16.90
2017-09-28T09:01:04.423Z,17.50
2017-09-28T09:03:33.688Z,16.77
2017-09-28T09:06:03.624Z,16.80
2017-09-28T09:08:32.531Z,16.53
2017-09-28T09:11:01.616Z,17.50
2017-09-28T09:13:30.829Z,17.30
2017-09-28T09:16:00.076Z,16.73
2017-09-28T09:18:30.612Z,16.97
2017-09-28T09:21:05.766Z,15.97
2017-09-28T09:23:36.704Z,16.03
2017-09-28T09:30:07.041Z,15.33
2017-09-28T09:44:09.619Z,15.77
2017-09-28T09:46:39.687Z,15.10
2017-09-28T09:49:14.263Z,16.50
2017-09-28T09:52:01.088Z,17.77
2017-09-28T09:54:31.916Z,16.60
2017-09-28T09:59:57.892Z,16.07
2017-09-28T10:02:33.381Z,17.20
2017-09-28T10:06:16.227Z,16.40
2017-09-28T10:09:21.505Z,15.70
2017-09-28T10:15:16.073Z,16.30
2017-09-28T10:17:45.121Z,17.17
2017-09-28T10:20:14.518Z,17.00
2017-09-28T10:23:31.533Z,16.33
2017-09-28T10:26:06.027Z,17.00
2017-09-28T10:28:35.641Z,17.03
2017-09-28T10:31:04.948Z,18.83
2017-09-28T10:33:34.023Z,20.03
2017-09-28T10:36:03.874Z,19.00
2017-09-28T10:38:33.450Z,18.63
2017-09-28T10:41:03.316Z,18.73
2017-09-28T10:43:32.416Z,17.70
2017-09-28T10:46:02.476Z,21.47
2017-09-28T10:48:32.131Z,18.10
2017-09-28T10:51:01.146Z,18.20
2017-09-28T10:53:31.114Z,21.20
2017-09-28T10:56:00.073Z,20.17
2017-09-28T10:58:29.740Z,21.13
2017-09-28T11:00:58.954Z,20.40
2017-09-28T11:03:27.896Z,21.53
2017-09-28T11:05:56.794Z,22.03
2017-09-28T11:08:26.032Z,22.47
2017-09-28T11:10:55.649Z,21.60
2017-09-28T11:13:25.281Z,26.83
2017-09-28T11:15:54.507Z,26.70
2017-09-28T11:18:23.508Z,23.87
2017-09-28T11:20:53.154Z,21.60
2017-09-28T11:23:22.592Z,23.83
2017-09-28T11:25:51.551Z,23.77
2017-09-28T11:28:21.663Z,24.07
2017-09-28T11:30:50.887Z,24.20
2017-09-28T11:33:19.828Z,24.77
2017-09-28T11:35:50.125Z,22.27
2017-09-28T11:38:19.574Z,22.57
2017-09-28T11:40:48.716Z,23.30
2017-09-28T11:43:17.598Z,24.43
2017-09-28T11:45:46.839Z,23.50
2017-09-28T11:48:15.724Z,24.03
2017-09-28T11:50:45.561Z,23.83
2017-09-28T11:53:16.196Z,22.73
2017-09-28T11:55:45.138Z,23.70
2017-09-28T11:58:14.064Z,22.30
2017-09-28T12:00:45.744Z,23.33
2017-09-28T12:03:15.595Z,21.23
2017-09-28T12:05:44.555Z,21.37
2017-09-28T12:08:14.465Z,20.40
2017-09-28T12:10:44.115Z,21.20
2017-09-28T12:13:14.006Z,21.00
2017-09-28T12:15:45.571Z,26.50
2017-09-28T12:18:15.400Z,25.10
2017-09-28T12:20:45.164Z,23.73
2017-09-28T12:23:15.224Z,23.17
2017-09-28T12:25:44.122Z,23.30
2017-09-28T12:28:17.458Z,24.73
2017-09-28T12:30:47.177Z,24.50
2017-09-28T12:33:16.104Z,23.30
2017-09-28T12:35:45.319Z,24.00
2017-09-28T12:38:14.276Z,25.70
2017-09-28T12:40:45.900Z,26.10
2017-09-28T12:43:15.810Z,25.87
2017-09-28T12:45:45.799Z,26.60
2017-09-28T12:48:16.025Z,24.77
2017-09-28T12:50:45.437Z,24.67
2017-09-28T12:53:15.309Z,24.30
2017-09-28T12:55:45.846Z,23.60
2017-09-28T12:58:15.096Z,24.63
2017-09-28T13:00:44.146Z,26.90
2017-09-28T13:03:13.363Z,23.53
2017-09-28T13:05:42.562Z,25.40
2017-09-28T13:08:12.641Z,26.77
2017-09-28T13:10:41.764Z,24.83
2017-09-28T13:13:10.926Z,23.77
2017-09-28T13:15:40.008Z,24.33
2017-09-28T13:18:10.254Z,25.17
2017-09-28T13:20:39.457Z,24.97
2017-09-28T13:23:09.234Z,24.03
2017-09-28T13:25:38.926Z,25.10
2017-09-28T13:28:09.724Z,24.33
2017-09-28T13:30:39.589Z,24.00
2017-09-28T13:33:09.236Z,23.33
2017-09-28T13:35:39.137Z,23.10
2017-09-28T13:38:56.071Z,23.00
2017-09-28T13:41:53.685Z,23.93
2017-09-28T13:54:45.969Z,22.53
2017-09-28T14:10:18.773Z,23.20
2017-09-28T15:03:25.889Z,26.40
2017-09-28T15:06:37.972Z,31.90
2017-09-28T15:09:07.798Z,33.57
2017-09-28T15:11:37.500Z,32.13
2017-09-28T15:14:07.840Z,32.37
2017-09-28T15:16:38.974Z,33.00
2017-09-28T15:19:11.405Z,39.90
2017-09-28T15:21:45.306Z,39.60
2017-09-28T15:24:15.423Z,35.17
2017-09-28T15:26:45.085Z,34.73
2017-09-28T15:29:15.076Z,30.80
2017-09-28T15:31:44.777Z,32.53
2017-09-28T15:34:15.424Z,35.30
2017-09-28T15:36:47.085Z,34.97
2017-09-28T15:39:16.127Z,34.30
2017-09-28T15:41:45.231Z,34.23
2017-09-28T15:44:14.929Z,32.73
2017-09-28T15:46:46.129Z,30.43
2017-09-28T15:49:15.827Z,31.30
2017-09-28T15:51:45.102Z,30.07
2017-09-28T15:54:18.803Z,26.43
2017-09-28T15:56:59.259Z,29.53
2017-09-28T15:59:29.312Z,28.60
2017-09-28T16:01:58.724Z,31.03
2017-09-28T16:04:30.704Z,28.60
2017-09-28T16:07:06.092Z,30.40
2017-09-28T16:09:35.320Z,29.77
2017-09-28T16:12:15.554Z,30.40
2017-09-28T16:14:44.718Z,30.17
2017-09-28T16:17:15.104Z,30.70
2017-09-28T16:19:45.554Z,28.90
2017-09-28T16:32:22.601Z,29.10
2017-09-28T16:35:20.491Z,29.83
2017-09-28T16:38:18.021Z,31.27
2017-09-28T16:40:49.556Z,30.33
2017-09-28T16:43:47.923Z,30.40
2017-09-28T16:53:57.077Z,30.33
2017-09-28T17:30:26.541Z,33.60
2017-09-28T17:45:59.608Z,35.30
2017-09-28T17:56:40.331Z,30.80
2017-09-28T18:01:03.861Z,30.27
2017-09-28T18:05:59.699Z,29.93
2017-09-28T18:08:47.218Z,33.10
2017-09-28T18:11:37.456Z,30.77
2017-09-28T18:14:07.937Z,30.93
2017-09-28T18:16:37.275Z,32.70
2017-09-28T18:19:21.200Z,32.47
2017-09-28T18:21:50.492Z,31.63
2017-09-28T18:24:19.468Z,30.97
2017-09-28T18:29:22.214Z,31.43
2017-09-28T18:31:56.040Z,31.30
2017-09-28T18:34:30.911Z,31.60
2017-09-28T18:36:59.852Z,30.97
2017-09-28T18:39:30.888Z,30.27
2017-09-28T18:41:59.936Z,31.60
2017-09-28T18:44:34.561Z,29.70
2017-09-28T18:47:03.901Z,29.57
2017-09-28T18:49:33.125Z,30.07
2017-09-28T18:52:02.320Z,30.10
2017-09-28T18:54:32.276Z,31.23
2017-09-28T18:57:01.389Z,30.83
2017-09-28T18:59:30.321Z,31.80
2017-09-28T19:02:00.009Z,31.97
2017-09-28T19:04:29.052Z,30.13
2017-09-28T19:07:00.260Z,31.30
2017-09-28T19:09:30.218Z,32.13
2017-09-28T19:11:59.749Z,32.00
2017-09-28T19:14:29.340Z,30.57
2017-09-28T19:16:58.351Z,31.10
2017-09-28T19:19:27.434Z,30.40
2017-09-28T19:21:56.639Z,30.90
2017-09-28T19:24:26.800Z,29.93
2017-09-28T19:26:58.430Z,30.70
2017-09-28T19:29:29.180Z,32.90
2017-09-28T19:31:58.629Z,31.33
2017-09-28T19:34:27.835Z,33.00
2017-09-28T19:36:56.852Z,30.87
2017-09-28T19:42:01.113Z,31.57
2017-09-28T19:44:31.297Z,31.87
2017-09-28T19:47:01.780Z,31.40
2017-09-28T19:49:30.694Z,32.27
2017-09-28T19:51:59.596Z,34.30
2017-09-28T19:54:28.708Z,30.37
2017-09-28T19:56:57.601Z,31.40
2017-09-28T19:59:27.272Z,32.40
2017-09-28T20:01:56.980Z,31.33
2017-09-28T20:04:25.912Z,33.70
2017-09-28T20:06:55.562Z,32.80
2017-09-28T20:09:24.885Z,32.30
2017-09-28T20:11:54.023Z,32.87
2017-09-28T20:14:23.790Z,33.03
2017-09-28T20:16:53.057Z,32.80
2017-09-28T20:19:22.077Z,31.50
2017-09-28T20:21:51.032Z,32.90
2017-09-28T20:24:21.330Z,33.10
2017-09-28T20:26:50.978Z,34.57
2017-09-28T20:29:20.625Z,34.07
2017-09-28T20:31:50.666Z,35.73
2017-09-28T20:34:20.381Z,34.60
2017-09-28T20:36:50.036Z,36.90
2017-09-28T20:39:20.280Z,34.17
2017-09-28T20:41:49.211Z,36.23
2017-09-28T20:44:18.180Z,40.97
2017-09-28T20:46:48.785Z,38.13
2017-09-28T20:49:17.720Z,41.17
2017-09-28T20:51:47.656Z,36.53
2017-09-28T20:54:18.284Z,37.57
2017-09-28T20:56:48.256Z,37.77
2017-09-28T20:59:17.897Z,37.80
2017-09-28T21:01:48.028Z,41.63
2017-09-28T21:04:17.432Z,42.27
2017-09-28T21:06:46.317Z,39.63
2017-09-28T21:09:15.496Z,39.97
2017-09-28T21:11:44.656Z,43.17
2017-09-28T21:14:13.648Z,38.30
2017-09-28T21:16:42.840Z,36.57
2017-09-28T21:19:11.738Z,39.70
2017-09-28T21:21:40.708Z,39.47
2017-09-28T21:24:09.759Z,35.87
2017-09-28T21:26:39.164Z,30.30
2017-09-28T21:31:48.374Z,28.80
2017-09-28T21:34:19.487Z,27.57
2017-09-28T21:36:48.543Z,27.47
2017-09-28T21:39:18.840Z,28.63
2017-09-28T21:41:48.836Z,27.10
2017-09-28T21:44:18.975Z,29.30
2017-09-28T21:46:48.813Z,30.70
2017-09-28T21:49:18.152Z,29.10
2017-09-28T21:51:50.547Z,29.87
2017-09-28T21:54:23.201Z,26.87
2017-09-28T21:57:02.494Z,29.33
2017-09-28T21:59:35.788Z,27.33
2017-09-28T22:07:52.619Z,27.43
2017-09-28T22:10:27.517Z,25.47
2017-09-28T22:13:04.346Z,28.70
2017-09-28T22:15:46.274Z,27.27
2017-09-28T22:18:29.603Z,31.23
2017-09-28T22:26:43.778Z,26.37
2017-09-28T22:29:20.281Z,27.93
2017-09-28T22:43:57.191Z,32.87
2017-09-28T22:46:37.950Z,29.83
2017-09-28T22:49:08.962Z,28.60
2017-09-28T22:51:48.298Z,29.60
2017-09-28T22:57:40.134Z,26.23
2017-09-28T23:03:18.751Z,33.77
2017-09-28T23:05:53.326Z,42.93
2017-09-28T23:08:24.000Z,43.13
2017-09-28T23:13:49.092Z,43.37
